sensor_id;sensor_type;location;lat;lon;timestamp;P1;durP1;ratioP1;P2;durP2;ratioP2
22778;SDS011;11556;51.194;3.800;2023-05-10T00:00:32;27.70;;;11.13;;
22778;SDS011;11556;51.194;3.800;2023-05-10T00:02:58;31.65;;;10.75;;
22778;SDS011;11556;51.194;3.800;2023-05-10T00:05:23;25.27;;;10.18;;
22778;SDS011;11556;51.194;3.800;2023-05-10T00:07:49;23.92;;;10.07;;
22778;SDS011;11556;51.194;3.800;2023-05-10T00:10:15;29.40;;;10.48;;
22778;SDS011;11556;51.194;3.800;2023-05-10T00:12:40;28.90;;;11.10;;
22778;SDS011;11556;51.194;3.800;2023-05-10T00:15:06;31.17;;;11.40;;
22778;SDS011;11556;51.194;3.800;2023-05-10T00:17:33;28.20;;;11.10;;
22778;SDS011;11556;51.194;3.800;2023-05-10T00:19:58;27.10;;;11.98;;
22778;SDS011;11556;51.194;3.800;2023-05-10T00:22:25;30.60;;;11.85;;
22778;SDS011;11556;51.194;3.800;2023-05-10T00:24:51;28.70;;;11.73;;
22778;SDS011;11556;51.194;3.800;2023-05-10T00:27:16;28.60;;;12.38;;
22778;SDS011;11556;51.194;3.800;2023-05-10T00:29:42;33.83;;;13.60;;
22778;SDS011;11556;51.194;3.800;2023-05-10T00:32:08;33.17;;;14.02;;
22778;SDS011;11556;51.194;3.800;2023-05-10T00:34:33;36.80;;;14.52;;
22778;SDS011;11556;51.194;3.800;2023-05-10T00:36:59;37.35;;;14.65;;
22778;SDS011;11556;51.194;3.800;2023-05-10T00:39:25;45.03;;;18.20;;
22778;SDS011;11556;51.194;3.800;2023-05-10T00:41:51;44.05;;;17.98;;
22778;SDS011;11556;51.194;3.800;2023-05-10T00:44:17;46.53;;;17.58;;
22778;SDS011;11556;51.194;3.800;2023-05-10T00:46:43;38.63;;;17.35;;
22778;SDS011;11556;51.194;3.800;2023-05-10T00:49:09;37.78;;;16.90;;
22778;SDS011;11556;51.194;3.800;2023-05-10T00:51:36;36.70;;;16.33;;
22778;SDS011;11556;51.194;3.800;2023-05-10T00:54:02;40.40;;;17.20;;
22778;SDS011;11556;51.194;3.800;2023-05-10T00:56:28;47.03;;;17.42;;
22778;SDS011;11556;51.194;3.800;2023-05-10T00:58:54;47.67;;;18.98;;
22778;SDS011;11556;51.194;3.800;2023-05-10T01:01:21;48.00;;;20.10;;
22778;SDS011;11556;51.194;3.800;2023-05-10T01:03:47;52.40;;;21.02;;
22778;SDS011;11556;51.194;3.800;2023-05-10T01:06:13;49.30;;;21.13;;
22778;SDS011;11556;51.194;3.800;2023-05-10T01:08:39;57.33;;;21.90;;
22778;SDS011;11556;51.194;3.800;2023-05-10T01:11:05;59.33;;;23.02;;
22778;SDS011;11556;51.194;3.800;2023-05-10T01:13:35;58.70;;;22.60;;
22778;SDS011;11556;51.194;3.800;2023-05-10T01:16:03;58.45;;;22.55;;
22778;SDS011;11556;51.194;3.800;2023-05-10T01:18:30;61.78;;;23.55;;
22778;SDS011;11556;51.194;3.800;2023-05-10T01:21:02;61.88;;;23.35;;
22778;SDS011;11556;51.194;3.800;2023-05-10T01:34:35;79.63;;;26.88;;
22778;SDS011;11556;51.194;3.800;2023-05-10T01:42:51;74.97;;;26.00;;
22778;SDS011;11556;51.194;3.800;2023-05-10T01:45:33;72.78;;;25.88;;
22778;SDS011;11556;51.194;3.800;2023-05-10T01:48:07;67.97;;;24.58;;
22778;SDS011;11556;51.194;3.800;2023-05-10T01:50:35;66.90;;;24.45;;
22778;SDS011;11556;51.194;3.800;2023-05-10T01:53:04;67.18;;;24.35;;
22778;SDS011;11556;51.194;3.800;2023-05-10T01:55:32;57.83;;;22.20;;
22778;SDS011;11556;51.194;3.800;2023-05-10T01:58:05;67.45;;;24.35;;
22778;SDS011;11556;51.194;3.800;2023-05-10T02:00:33;61.08;;;23.27;;
22778;SDS011;11556;51.194;3.800;2023-05-10T02:03:00;64.40;;;23.83;;
22778;SDS011;11556;51.194;3.800;2023-05-10T02:05:30;56.42;;;22.13;;
22778;SDS011;11556;51.194;3.800;2023-05-10T02:07:58;63.10;;;22.55;;
22778;SDS011;11556;51.194;3.800;2023-05-10T02:10:26;63.13;;;22.13;;
22778;SDS011;11556;51.194;3.800;2023-05-10T02:12:53;61.58;;;21.27;;
22778;SDS011;11556;51.194;3.800;2023-05-10T02:15:22;61.67;;;21.23;;
22778;SDS011;11556;51.194;3.800;2023-05-10T02:17:49;60.90;;;21.17;;
22778;SDS011;11556;51.194;3.800;2023-05-10T02:20:16;62.15;;;21.25;;
22778;SDS011;11556;51.194;3.800;2023-05-10T02:22:44;67.60;;;22.45;;
22778;SDS011;11556;51.194;3.800;2023-05-10T02:25:10;72.35;;;23.48;;
22778;SDS011;11556;51.194;3.800;2023-05-10T02:27:38;69.10;;;23.35;;
22778;SDS011;11556;51.194;3.800;2023-05-10T02:30:08;70.72;;;23.40;;
22778;SDS011;11556;51.194;3.800;2023-05-10T02:32:35;66.28;;;22.25;;
22778;SDS011;11556;51.194;3.800;2023-05-10T02:35:02;67.85;;;22.55;;
22778;SDS011;11556;51.194;3.800;2023-05-10T02:37:30;71.47;;;23.52;;
22778;SDS011;11556;51.194;3.800;2023-05-10T02:39:57;66.03;;;23.58;;
22778;SDS011;11556;51.194;3.800;2023-05-10T02:42:25;67.05;;;23.00;;
22778;SDS011;11556;51.194;3.800;2023-05-10T02:44:53;69.47;;;22.63;;
22778;SDS011;11556;51.194;3.800;2023-05-10T02:47:21;73.90;;;23.73;;
22778;SDS011;11556;51.194;3.800;2023-05-10T02:49:47;69.43;;;23.55;;
22778;SDS011;11556;51.194;3.800;2023-05-10T02:52:14;64.03;;;22.88;;
22778;SDS011;11556;51.194;3.800;2023-05-10T02:54:45;62.83;;;22.90;;
22778;SDS011;11556;51.194;3.800;2023-05-10T02:57:17;67.32;;;22.77;;
22778;SDS011;11556;51.194;3.800;2023-05-10T02:59:50;64.30;;;21.45;;
22778;SDS011;11556;51.194;3.800;2023-05-10T03:02:16;63.97;;;21.67;;
22778;SDS011;11556;51.194;3.800;2023-05-10T03:04:42;63.65;;;21.73;;
22778;SDS011;11556;51.194;3.800;2023-05-10T03:07:07;55.80;;;21.08;;
22778;SDS011;11556;51.194;3.800;2023-05-10T03:09:33;57.50;;;20.92;;
22778;SDS011;11556;51.194;3.800;2023-05-10T03:17:30;57.88;;;21.15;;
22778;SDS011;11556;51.194;3.800;2023-05-10T03:20:08;59.65;;;21.63;;
22778;SDS011;11556;51.194;3.800;2023-05-10T03:22:47;65.60;;;22.88;;
22778;SDS011;11556;51.194;3.800;2023-05-10T03:25:16;55.63;;;20.58;;
22778;SDS011;11556;51.194;3.800;2023-05-10T03:27:43;55.88;;;21.52;;
22778;SDS011;11556;51.194;3.800;2023-05-10T03:30:10;52.65;;;20.90;;
22778;SDS011;11556;51.194;3.800;2023-05-10T03:32:37;61.67;;;21.58;;
22778;SDS011;11556;51.194;3.800;2023-05-10T03:35:10;55.50;;;21.67;;
22778;SDS011;11556;51.194;3.800;2023-05-10T03:37:38;55.88;;;21.92;;
22778;SDS011;11556;51.194;3.800;2023-05-10T03:40:04;58.58;;;21.95;;
22778;SDS011;11556;51.194;3.800;2023-05-10T03:42:30;60.03;;;22.25;;
22778;SDS011;11556;51.194;3.800;2023-05-10T03:44:56;57.15;;;24.02;;
22778;SDS011;11556;51.194;3.800;2023-05-10T03:47:22;53.95;;;21.90;;
22778;SDS011;11556;51.194;3.800;2023-05-10T03:49:47;60.58;;;22.90;;
22778;SDS011;11556;51.194;3.800;2023-05-10T03:52:13;60.10;;;23.23;;
22778;SDS011;11556;51.194;3.800;2023-05-10T03:54:39;62.47;;;22.58;;
22778;SDS011;11556;51.194;3.800;2023-05-10T03:57:04;58.72;;;23.13;;
22778;SDS011;11556;51.194;3.800;2023-05-10T03:59:30;60.78;;;23.60;;
22778;SDS011;11556;51.194;3.800;2023-05-10T04:01:56;64.20;;;24.70;;
22778;SDS011;11556;51.194;3.800;2023-05-10T04:04:21;57.75;;;23.10;;
22778;SDS011;11556;51.194;3.800;2023-05-10T04:06:48;62.00;;;25.38;;
22778;SDS011;11556;51.194;3.800;2023-05-10T04:09:14;62.17;;;25.90;;
22778;SDS011;11556;51.194;3.800;2023-05-10T04:11:41;57.08;;;25.98;;
22778;SDS011;11556;51.194;3.800;2023-05-10T04:14:07;63.75;;;25.52;;
22778;SDS011;11556;51.194;3.800;2023-05-10T04:16:33;59.08;;;25.60;;
22778;SDS011;11556;51.194;3.800;2023-05-10T04:18:58;64.43;;;25.67;;
22778;SDS011;11556;51.194;3.800;2023-05-10T04:21:24;63.05;;;25.35;;
22778;SDS011;11556;51.194;3.800;2023-05-10T04:23:50;57.00;;;25.63;;
22778;SDS011;11556;51.194;3.800;2023-05-10T04:26:16;68.00;;;25.00;;
22778;SDS011;11556;51.194;3.800;2023-05-10T04:28:42;63.80;;;25.10;;
22778;SDS011;11556;51.194;3.800;2023-05-10T04:31:08;66.30;;;25.60;;
22778;SDS011;11556;51.194;3.800;2023-05-10T04:33:35;59.58;;;25.17;;
22778;SDS011;11556;51.194;3.800;2023-05-10T04:36:02;59.58;;;23.95;;
22778;SDS011;11556;51.194;3.800;2023-05-10T04:38:28;57.10;;;24.50;;
22778;SDS011;11556;51.194;3.800;2023-05-10T04:40:55;56.88;;;24.08;;
22778;SDS011;11556;51.194;3.800;2023-05-10T04:43:31;56.38;;;24.38;;
22778;SDS011;11556;51.194;3.800;2023-05-10T04:45:57;55.92;;;24.65;;
22778;SDS011;11556;51.194;3.800;2023-05-10T04:48:22;59.38;;;24.42;;
22778;SDS011;11556;51.194;3.800;2023-05-10T04:50:48;56.03;;;24.13;;
22778;SDS011;11556;51.194;3.800;2023-05-10T04:53:13;52.72;;;23.73;;
22778;SDS011;11556;51.194;3.800;2023-05-10T04:55:39;53.53;;;24.73;;
22778;SDS011;11556;51.194;3.800;2023-05-10T04:58:05;54.72;;;23.92;;
22778;SDS011;11556;51.194;3.800;2023-05-10T05:00:30;49.50;;;23.35;;
22778;SDS011;11556;51.194;3.800;2023-05-10T05:02:56;55.47;;;24.40;;
22778;SDS011;11556;51.194;3.800;2023-05-10T05:05:22;48.75;;;22.48;;
22778;SDS011;11556;51.194;3.800;2023-05-10T05:07:48;50.70;;;23.80;;
22778;SDS011;11556;51.194;3.800;2023-05-10T05:10:13;49.03;;;23.05;;
22778;SDS011;11556;51.194;3.800;2023-05-10T05:12:39;40.90;;;21.67;;
22778;SDS011;11556;51.194;3.800;2023-05-10T05:15:05;38.80;;;20.88;;
22778;SDS011;11556;51.194;3.800;2023-05-10T05:17:31;33.80;;;19.30;;
22778;SDS011;11556;51.194;3.800;2023-05-10T05:19:56;30.23;;;17.73;;
22778;SDS011;11556;51.194;3.800;2023-05-10T05:22:22;30.45;;;16.92;;
22778;SDS011;11556;51.194;3.800;2023-05-10T05:24:52;27.38;;;16.85;;
22778;SDS011;11556;51.194;3.800;2023-05-10T05:27:23;28.90;;;16.20;;
22778;SDS011;11556;51.194;3.800;2023-05-10T05:29:52;29.65;;;16.73;;
22778;SDS011;11556;51.194;3.800;2023-05-10T05:32:21;27.80;;;16.38;;
22778;SDS011;11556;51.194;3.800;2023-05-10T05:34:47;30.25;;;16.02;;
22778;SDS011;11556;51.194;3.800;2023-05-10T05:37:19;27.90;;;15.55;;
22778;SDS011;11556;51.194;3.800;2023-05-10T05:39:46;28.67;;;16.20;;
22778;SDS011;11556;51.194;3.800;2023-05-10T05:42:12;29.90;;;17.50;;
22778;SDS011;11556;51.194;3.800;2023-05-10T05:44:39;57.00;;;31.58;;
22778;SDS011;11556;51.194;3.800;2023-05-10T05:47:05;34.53;;;20.13;;
22778;SDS011;11556;51.194;3.800;2023-05-10T05:49:31;35.58;;;21.40;;
22778;SDS011;11556;51.194;3.800;2023-05-10T05:52:03;30.75;;;17.25;;
22778;SDS011;11556;51.194;3.800;2023-05-10T05:54:29;30.60;;;17.30;;
22778;SDS011;11556;51.194;3.800;2023-05-10T05:56:56;30.65;;;18.00;;
22778;SDS011;11556;51.194;3.800;2023-05-10T05:59:22;26.50;;;16.58;;
22778;SDS011;11556;51.194;3.800;2023-05-10T06:01:48;27.58;;;17.10;;
22778;SDS011;11556;51.194;3.800;2023-05-10T06:04:14;27.80;;;16.45;;
22778;SDS011;11556;51.194;3.800;2023-05-10T06:06:40;25.20;;;16.73;;
22778;SDS011;11556;51.194;3.800;2023-05-10T06:09:05;23.75;;;15.52;;
22778;SDS011;11556;51.194;3.800;2023-05-10T06:11:31;24.38;;;13.93;;
22778;SDS011;11556;51.194;3.800;2023-05-10T06:14:00;19.27;;;14.05;;
22778;SDS011;11556;51.194;3.800;2023-05-10T06:16:26;19.58;;;12.70;;
22778;SDS011;11556;51.194;3.800;2023-05-10T06:18:52;17.80;;;12.07;;
22778;SDS011;11556;51.194;3.800;2023-05-10T06:21:18;15.68;;;12.07;;
22778;SDS011;11556;51.194;3.800;2023-05-10T06:23:44;16.38;;;11.82;;
22778;SDS011;11556;51.194;3.800;2023-05-10T06:26:10;17.67;;;12.38;;
22778;SDS011;11556;51.194;3.800;2023-05-10T06:28:35;15.82;;;11.00;;
22778;SDS011;11556;51.194;3.800;2023-05-10T06:31:04;16.00;;;11.15;;
22778;SDS011;11556;51.194;3.800;2023-05-10T06:33:30;15.50;;;11.05;;
22778;SDS011;11556;51.194;3.800;2023-05-10T06:35:56;14.02;;;9.50;;
22778;SDS011;11556;51.194;3.800;2023-05-10T06:38:22;11.82;;;9.00;;
22778;SDS011;11556;51.194;3.800;2023-05-10T06:40:47;15.75;;;9.95;;
22778;SDS011;11556;51.194;3.800;2023-05-10T06:43:13;14.02;;;9.85;;
22778;SDS011;11556;51.194;3.800;2023-05-10T06:45:39;16.13;;;10.13;;
22778;SDS011;11556;51.194;3.800;2023-05-10T06:48:04;12.32;;;8.82;;
22778;SDS011;11556;51.194;3.800;2023-05-10T06:50:30;13.85;;;8.95;;
22778;SDS011;11556;51.194;3.800;2023-05-10T06:52:56;13.15;;;8.52;;
22778;SDS011;11556;51.194;3.800;2023-05-10T06:55:22;14.02;;;8.02;;
22778;SDS011;11556;51.194;3.800;2023-05-10T06:57:47;11.30;;;8.52;;
22778;SDS011;11556;51.194;3.800;2023-05-10T07:00:13;12.85;;;8.25;;
22778;SDS011;11556;51.194;3.800;2023-05-10T07:02:39;14.07;;;8.88;;
22778;SDS011;11556;51.194;3.800;2023-05-10T07:05:05;16.60;;;9.73;;
22778;SDS011;11556;51.194;3.800;2023-05-10T07:07:31;15.30;;;9.35;;
22778;SDS011;11556;51.194;3.800;2023-05-10T07:09:57;14.65;;;9.73;;
22778;SDS011;11556;51.194;3.800;2023-05-10T07:12:23;13.73;;;9.63;;
22778;SDS011;11556;51.194;3.800;2023-05-10T07:14:49;14.90;;;9.13;;
22778;SDS011;11556;51.194;3.800;2023-05-10T07:17:15;13.20;;;9.60;;
22778;SDS011;11556;51.194;3.800;2023-05-10T07:19:40;11.82;;;8.93;;
22778;SDS011;11556;51.194;3.800;2023-05-10T07:22:06;12.35;;;8.57;;
22778;SDS011;11556;51.194;3.800;2023-05-10T07:24:32;13.40;;;9.18;;
22778;SDS011;11556;51.194;3.800;2023-05-10T07:26:58;14.65;;;9.40;;
22778;SDS011;11556;51.194;3.800;2023-05-10T07:29:24;13.98;;;8.70;;
22778;SDS011;11556;51.194;3.800;2023-05-10T07:31:50;12.18;;;8.18;;
22778;SDS011;11556;51.194;3.800;2023-05-10T07:34:16;9.75;;;7.13;;
22778;SDS011;11556;51.194;3.800;2023-05-10T07:36:42;7.93;;;5.95;;
22778;SDS011;11556;51.194;3.800;2023-05-10T07:39:07;9.32;;;5.65;;
22778;SDS011;11556;51.194;3.800;2023-05-10T07:41:33;6.10;;;5.38;;
22778;SDS011;11556;51.194;3.800;2023-05-10T07:43:59;7.72;;;5.55;;
22778;SDS011;11556;51.194;3.800;2023-05-10T07:46:25;8.13;;;6.20;;
22778;SDS011;11556;51.194;3.800;2023-05-10T07:48:50;8.35;;;6.65;;
22778;SDS011;11556;51.194;3.800;2023-05-10T07:51:16;6.50;;;5.80;;
22778;SDS011;11556;51.194;3.800;2023-05-10T07:53:42;8.48;;;6.53;;
22778;SDS011;11556;51.194;3.800;2023-05-10T07:58:48;10.07;;;7.05;;
22778;SDS011;11556;51.194;3.800;2023-05-10T08:01:14;8.90;;;6.63;;
22778;SDS011;11556;51.194;3.800;2023-05-10T08:03:39;7.78;;;5.78;;
22778;SDS011;11556;51.194;3.800;2023-05-10T08:06:05;8.60;;;5.55;;
22778;SDS011;11556;51.194;3.800;2023-05-10T08:08:31;8.00;;;5.78;;
22778;SDS011;11556;51.194;3.800;2023-05-10T08:10:57;7.95;;;5.68;;
22778;SDS011;11556;51.194;3.800;2023-05-10T08:13:22;8.35;;;6.00;;
22778;SDS011;11556;51.194;3.800;2023-05-10T08:15:48;10.65;;;6.03;;
22778;SDS011;11556;51.194;3.800;2023-05-10T08:18:13;8.98;;;5.68;;
22778;SDS011;11556;51.194;3.800;2023-05-10T08:20:39;11.23;;;6.05;;
22778;SDS011;11556;51.194;3.800;2023-05-10T08:23:05;5.75;;;5.07;;
22778;SDS011;11556;51.194;3.800;2023-05-10T08:25:31;4.93;;;4.43;;
22778;SDS011;11556;51.194;3.800;2023-05-10T08:27:57;5.60;;;4.57;;
22778;SDS011;11556;51.194;3.800;2023-05-10T08:30:22;9.38;;;5.15;;
22778;SDS011;11556;51.194;3.800;2023-05-10T08:32:48;7.90;;;5.18;;
22778;SDS011;11556;51.194;3.800;2023-05-10T08:35:15;5.95;;;5.28;;
22778;SDS011;11556;51.194;3.800;2023-05-10T08:37:41;9.02;;;5.07;;
22778;SDS011;11556;51.194;3.800;2023-05-10T08:40:06;5.97;;;4.88;;
22778;SDS011;11556;51.194;3.800;2023-05-10T08:42:36;7.05;;;5.47;;
22778;SDS011;11556;51.194;3.800;2023-05-10T08:45:06;7.90;;;5.75;;
22778;SDS011;11556;51.194;3.800;2023-05-10T08:47:34;8.10;;;5.82;;
22778;SDS011;11556;51.194;3.800;2023-05-10T08:50:02;7.85;;;5.95;;
22778;SDS011;11556;51.194;3.800;2023-05-10T08:52:30;8.52;;;6.15;;
22778;SDS011;11556;51.194;3.800;2023-05-10T08:54:57;9.20;;;5.97;;
22778;SDS011;11556;51.194;3.800;2023-05-10T08:57:23;11.20;;;6.13;;
22778;SDS011;11556;51.194;3.800;2023-05-10T08:59:49;7.65;;;5.63;;
22778;SDS011;11556;51.194;3.800;2023-05-10T09:02:15;7.63;;;5.53;;
22778;SDS011;11556;51.194;3.800;2023-05-10T09:04:43;7.07;;;5.28;;
22778;SDS011;11556;51.194;3.800;2023-05-10T09:07:09;8.55;;;5.63;;
22778;SDS011;11556;51.194;3.800;2023-05-10T09:09:36;7.45;;;5.15;;
22778;SDS011;11556;51.194;3.800;2023-05-10T09:12:02;6.38;;;4.82;;
22778;SDS011;11556;51.194;3.800;2023-05-10T09:14:28;7.38;;;5.20;;
22778;SDS011;11556;51.194;3.800;2023-05-10T09:16:55;21.50;;;11.43;;
22778;SDS011;11556;51.194;3.800;2023-05-10T09:19:21;7.22;;;5.35;;
22778;SDS011;11556;51.194;3.800;2023-05-10T09:21:47;9.00;;;6.50;;
22778;SDS011;11556;51.194;3.800;2023-05-10T09:24:14;12.95;;;6.03;;
22778;SDS011;11556;51.194;3.800;2023-05-10T09:26:46;10.50;;;6.32;;
22778;SDS011;11556;51.194;3.800;2023-05-10T09:29:13;9.57;;;6.03;;
22778;SDS011;11556;51.194;3.800;2023-05-10T09:31:57;11.63;;;7.50;;
22778;SDS011;11556;51.194;3.800;2023-05-10T09:34:30;11.93;;;7.30;;
22778;SDS011;11556;51.194;3.800;2023-05-10T09:36:58;11.32;;;6.93;;
22778;SDS011;11556;51.194;3.800;2023-05-10T09:39:31;10.32;;;7.10;;
22778;SDS011;11556;51.194;3.800;2023-05-10T09:41:59;15.50;;;8.35;;
22778;SDS011;11556;51.194;3.800;2023-05-10T09:44:28;15.30;;;9.27;;
22778;SDS011;11556;51.194;3.800;2023-05-10T09:46:54;14.55;;;9.60;;
22778;SDS011;11556;51.194;3.800;2023-05-10T09:49:20;17.58;;;10.40;;
22778;SDS011;11556;51.194;3.800;2023-05-10T09:51:47;17.42;;;11.30;;
22778;SDS011;11556;51.194;3.800;2023-05-10T09:54:15;21.08;;;11.52;;
22778;SDS011;11556;51.194;3.800;2023-05-10T09:56:42;14.98;;;9.52;;
22778;SDS011;11556;51.194;3.800;2023-05-10T09:59:11;15.90;;;9.25;;
22778;SDS011;11556;51.194;3.800;2023-05-10T10:01:38;16.27;;;10.02;;
22778;SDS011;11556;51.194;3.800;2023-05-10T10:04:04;18.90;;;11.32;;
22778;SDS011;11556;51.194;3.800;2023-05-10T10:06:38;21.08;;;11.45;;
22778;SDS011;11556;51.194;3.800;2023-05-10T10:09:05;22.42;;;12.13;;
22778;SDS011;11556;51.194;3.800;2023-05-10T10:11:31;21.02;;;12.30;;
22778;SDS011;11556;51.194;3.800;2023-05-10T10:13:59;20.05;;;11.75;;
22778;SDS011;11556;51.194;3.800;2023-05-10T10:16:25;18.85;;;11.57;;
22778;SDS011;11556;51.194;3.800;2023-05-10T10:18:52;20.75;;;12.02;;
22778;SDS011;11556;51.194;3.800;2023-05-10T10:21:18;20.25;;;12.15;;
22778;SDS011;11556;51.194;3.800;2023-05-10T10:23:44;18.70;;;12.20;;
22778;SDS011;11556;51.194;3.800;2023-05-10T10:26:10;17.65;;;11.80;;
22778;SDS011;11556;51.194;3.800;2023-05-10T10:34:32;14.23;;;9.82;;
22778;SDS011;11556;51.194;3.800;2023-05-10T10:37:03;16.52;;;10.18;;
22778;SDS011;11556;51.194;3.800;2023-05-10T10:39:30;15.57;;;10.20;;
22778;SDS011;11556;51.194;3.800;2023-05-10T10:41:56;17.17;;;10.48;;
22778;SDS011;11556;51.194;3.800;2023-05-10T10:44:24;19.33;;;11.15;;
22778;SDS011;11556;51.194;3.800;2023-05-10T10:50:04;19.35;;;11.52;;
22778;SDS011;11556;51.194;3.800;2023-05-10T11:00:17;19.15;;;12.20;;
22778;SDS011;11556;51.194;3.800;2023-05-10T11:02:43;20.40;;;12.45;;
22778;SDS011;11556;51.194;3.800;2023-05-10T11:05:35;18.52;;;12.52;;
22778;SDS011;11556;51.194;3.800;2023-05-10T11:08:09;21.67;;;12.75;;
22778;SDS011;11556;51.194;3.800;2023-05-10T11:10:39;26.43;;;14.87;;
22778;SDS011;11556;51.194;3.800;2023-05-10T11:13:13;22.05;;;13.75;;
22778;SDS011;11556;51.194;3.800;2023-05-10T11:15:39;21.75;;;13.40;;
22778;SDS011;11556;51.194;3.800;2023-05-10T11:18:16;24.52;;;13.95;;
22778;SDS011;11556;51.194;3.800;2023-05-10T11:20:52;20.00;;;12.27;;
22778;SDS011;11556;51.194;3.800;2023-05-10T11:23:21;20.60;;;13.25;;
22778;SDS011;11556;51.194;3.800;2023-05-10T11:25:47;20.92;;;13.40;;
22778;SDS011;11556;51.194;3.800;2023-05-10T11:28:14;22.85;;;13.85;;
22778;SDS011;11556;51.194;3.800;2023-05-10T11:30:42;20.50;;;14.07;;
22778;SDS011;11556;51.194;3.800;2023-05-10T11:33:09;30.42;;;17.00;;
22778;SDS011;11556;51.194;3.800;2023-05-10T11:35:40;25.90;;;17.00;;
22778;SDS011;11556;51.194;3.800;2023-05-10T11:38:07;28.38;;;16.70;;
22778;SDS011;11556;51.194;3.800;2023-05-10T11:40:37;31.25;;;17.85;;
22778;SDS011;11556;51.194;3.800;2023-05-10T11:43:03;34.38;;;18.77;;
22778;SDS011;11556;51.194;3.800;2023-05-10T11:45:33;37.10;;;20.17;;
22778;SDS011;11556;51.194;3.800;2023-05-10T11:47:59;36.15;;;20.40;;
22778;SDS011;11556;51.194;3.800;2023-05-10T11:50:26;33.20;;;19.80;;
22778;SDS011;11556;51.194;3.800;2023-05-10T11:52:52;37.85;;;21.17;;
22778;SDS011;11556;51.194;3.800;2023-05-10T11:55:19;43.05;;;23.77;;
22778;SDS011;11556;51.194;3.800;2023-05-10T11:57:45;38.08;;;22.58;;
22778;SDS011;11556;51.194;3.800;2023-05-10T12:00:14;45.17;;;25.73;;
22778;SDS011;11556;51.194;3.800;2023-05-10T12:02:40;42.17;;;21.63;;
22778;SDS011;11556;51.194;3.800;2023-05-10T12:05:06;41.15;;;22.15;;
22778;SDS011;11556;51.194;3.800;2023-05-10T12:07:32;40.03;;;22.25;;
22778;SDS011;11556;51.194;3.800;2023-05-10T12:10:13;38.10;;;21.05;;
22778;SDS011;11556;51.194;3.800;2023-05-10T12:12:40;39.40;;;20.90;;
22778;SDS011;11556;51.194;3.800;2023-05-10T12:15:25;35.65;;;20.75;;
22778;SDS011;11556;51.194;3.800;2023-05-10T12:17:52;39.80;;;21.02;;
22778;SDS011;11556;51.194;3.800;2023-05-10T12:20:21;43.75;;;23.27;;
22778;SDS011;11556;51.194;3.800;2023-05-10T12:22:56;41.35;;;21.33;;
22778;SDS011;11556;51.194;3.800;2023-05-10T12:25:24;35.78;;;20.58;;
22778;SDS011;11556;51.194;3.800;2023-05-10T12:27:58;34.45;;;19.08;;
22778;SDS011;11556;51.194;3.800;2023-05-10T12:30:28;32.00;;;18.88;;
22778;SDS011;11556;51.194;3.800;2023-05-10T12:35:53;35.47;;;18.13;;
22778;SDS011;11556;51.194;3.800;2023-05-10T12:41:05;29.25;;;16.15;;
22778;SDS011;11556;51.194;3.800;2023-05-10T12:43:32;27.58;;;16.65;;
22778;SDS011;11556;51.194;3.800;2023-05-10T12:45:58;32.75;;;17.90;;
22778;SDS011;11556;51.194;3.800;2023-05-10T12:48:33;29.02;;;16.73;;
22778;SDS011;11556;51.194;3.800;2023-05-10T12:51:00;32.97;;;17.85;;
22778;SDS011;11556;51.194;3.800;2023-05-10T12:53:26;34.75;;;19.30;;
22778;SDS011;11556;51.194;3.800;2023-05-10T12:55:52;34.65;;;17.85;;
22778;SDS011;11556;51.194;3.800;2023-05-10T12:58:18;31.42;;;17.60;;
22778;SDS011;11556;51.194;3.800;2023-05-10T13:00:44;27.50;;;15.95;;
22778;SDS011;11556;51.194;3.800;2023-05-10T13:03:10;30.45;;;16.88;;
22778;SDS011;11556;51.194;3.800;2023-05-10T13:05:36;27.25;;;16.27;;
22778;SDS011;11556;51.194;3.800;2023-05-10T13:08:02;32.05;;;16.33;;
22778;SDS011;11556;51.194;3.800;2023-05-10T13:10:29;30.27;;;15.93;;
22778;SDS011;11556;51.194;3.800;2023-05-10T13:12:55;33.92;;;16.92;;
22778;SDS011;11556;51.194;3.800;2023-05-10T13:15:21;31.27;;;17.02;;
22778;SDS011;11556;51.194;3.800;2023-05-10T13:17:47;43.55;;;17.55;;
22778;SDS011;11556;51.194;3.800;2023-05-10T13:20:13;29.25;;;17.52;;
22778;SDS011;11556;51.194;3.800;2023-05-10T13:22:40;34.95;;;19.15;;
22778;SDS011;11556;51.194;3.800;2023-05-10T13:25:09;31.27;;;16.52;;
22778;SDS011;11556;51.194;3.800;2023-05-10T13:27:35;35.13;;;17.63;;
22778;SDS011;11556;51.194;3.800;2023-05-10T13:30:01;33.80;;;16.73;;
22778;SDS011;11556;51.194;3.800;2023-05-10T13:32:28;32.83;;;17.10;;
22778;SDS011;11556;51.194;3.800;2023-05-10T13:34:54;36.08;;;16.85;;
22778;SDS011;11556;51.194;3.800;2023-05-10T13:37:20;34.08;;;21.17;;
22778;SDS011;11556;51.194;3.800;2023-05-10T13:39:46;34.10;;;20.33;;
22778;SDS011;11556;51.194;3.800;2023-05-10T13:42:12;30.08;;;17.13;;
22778;SDS011;11556;51.194;3.800;2023-05-10T13:44:37;35.60;;;19.20;;
22778;SDS011;11556;51.194;3.800;2023-05-10T13:47:04;36.75;;;16.33;;
22778;SDS011;11556;51.194;3.800;2023-05-10T13:49:29;27.45;;;14.52;;
22778;SDS011;11556;51.194;3.800;2023-05-10T13:51:55;31.95;;;15.05;;
22778;SDS011;11556;51.194;3.800;2023-05-10T13:54:21;31.10;;;14.40;;
22778;SDS011;11556;51.194;3.800;2023-05-10T13:56:49;32.78;;;14.75;;
22778;SDS011;11556;51.194;3.800;2023-05-10T13:59:14;37.88;;;14.27;;
22778;SDS011;11556;51.194;3.800;2023-05-10T14:01:40;28.95;;;13.98;;
22778;SDS011;11556;51.194;3.800;2023-05-10T14:04:07;32.50;;;14.10;;
22778;SDS011;11556;51.194;3.800;2023-05-10T14:06:35;31.17;;;13.05;;
22778;SDS011;11556;51.194;3.800;2023-05-10T14:09:01;25.27;;;13.18;;
22778;SDS011;11556;51.194;3.800;2023-05-10T14:11:28;27.73;;;12.45;;
22778;SDS011;11556;51.194;3.800;2023-05-10T14:13:53;32.90;;;13.20;;
22778;SDS011;11556;51.194;3.800;2023-05-10T14:16:19;26.77;;;12.43;;
22778;SDS011;11556;51.194;3.800;2023-05-10T14:18:45;21.65;;;10.98;;
22778;SDS011;11556;51.194;3.800;2023-05-10T14:21:11;27.70;;;11.52;;
22778;SDS011;11556;51.194;3.800;2023-05-10T14:23:38;24.42;;;10.70;;
22778;SDS011;11556;51.194;3.800;2023-05-10T14:26:04;31.98;;;11.18;;
22778;SDS011;11556;51.194;3.800;2023-05-10T14:28:29;28.20;;;11.73;;
22778;SDS011;11556;51.194;3.800;2023-05-10T14:30:56;24.50;;;11.23;;
22778;SDS011;11556;51.194;3.800;2023-05-10T14:33:22;22.05;;;10.82;;
22778;SDS011;11556;51.194;3.800;2023-05-10T14:35:48;29.35;;;10.93;;
22778;SDS011;11556;51.194;3.800;2023-05-10T14:38:14;22.30;;;10.38;;
22778;SDS011;11556;51.194;3.800;2023-05-10T14:40:40;27.13;;;11.52;;
22778;SDS011;11556;51.194;3.800;2023-05-10T14:43:05;21.45;;;10.98;;
22778;SDS011;11556;51.194;3.800;2023-05-10T14:45:31;26.30;;;10.63;;
22778;SDS011;11556;51.194;3.800;2023-05-10T14:47:57;25.35;;;10.07;;
22778;SDS011;11556;51.194;3.800;2023-05-10T14:50:23;26.30;;;12.18;;
22778;SDS011;11556;51.194;3.800;2023-05-10T14:52:49;27.65;;;11.35;;
22778;SDS011;11556;51.194;3.800;2023-05-10T14:55:15;23.10;;;10.13;;
22778;SDS011;11556;51.194;3.800;2023-05-10T14:57:41;22.08;;;9.85;;
22778;SDS011;11556;51.194;3.800;2023-05-10T15:00:07;21.85;;;9.70;;
22778;SDS011;11556;51.194;3.800;2023-05-10T15:02:33;22.70;;;9.50;;
22778;SDS011;11556;51.194;3.800;2023-05-10T15:04:58;25.15;;;10.13;;
22778;SDS011;11556;51.194;3.800;2023-05-10T15:07:24;23.48;;;9.90;;
22778;SDS011;11556;51.194;3.800;2023-05-10T15:09:50;18.33;;;9.88;;
22778;SDS011;11556;51.194;3.800;2023-05-10T15:12:17;19.90;;;9.93;;